Terminal Aerodrome Forecast
Issued by NWS Melbourne, FL

Home | Current Version | Previous Version | Text Only | Print | Product List | Glossary On
Versions: 1 2 3 4 5 6 7 8 9 10 11 12 13 14 15 16 17 18 19 20 21 22 23 24 25 26 27
000
FTUS42 KMLB 301507 AAA
TAFMCO
TAF AMD
KMCO 301507Z 3015/3112 15009KT P6SM VCSH SCT020 SCT100 BKN200
     FM301800 14011KT 6SM -RA VCTS BKN030CB OVC100
      TEMPO 3018/3022 3SM TSRA BKN020CB OVC050
     FM310100 13006KT P6SM VCSH SCT020 BKN050 OVC250=

USA.gov is the U.S. government's official web portal to all federal, state and local government web resources and services.